Daisinmaru No.11 — JK5352 — position and weather

sailwx.info

Track history (hours):
 
Tides and Currents Weather Stations Pressure Air Temp Water Temp Dewpoint Dewpoint Depression Visibility Wind Speed Wind Dir Waves Ship Positions

Daisinmaru No.11

Last reported at 2015-Aug-28 01:09 UTC. Time now 2015-Sep-03 08:54 UTC.
Position N 35°27' E 139°59'.

Length 52 m; draft 5.2 m.

Type: Cargo ship. MMSI: 431000667.

Date/timePositionNaut miles runAvg speedWind from/ knotsBaromVisibWave heightAir tempDewpointWater temp
2015-Aug-28 01:09N 35°27' E 139°59'0 0.0
2015-Aug-28 00:33N 35°27' E 139°59'0 0.0
2015-Aug-27 00:14N 35°27' E 139°59'0 0.0
2015-Aug-26 23:33N 35°27' E 139°59'0 0.0
2015-Aug-25 01:13N 35°27' E 139°59'0 0.0
2015-Aug-25 00:33N 35°27' E 139°59'0 0.0
2015-Aug-24 23:33N 35°27' E 139°59'0 0.5
2015-Aug-24 22:33N 35°27' E 139°60'0 0.0
2015-Aug-24 06:33N 35°27' E 139°60'7 6.7
2015-Aug-24 05:33N 35°32' E 140°05'0 0.3
2015-Aug-24 04:33N 35°32' E 140°06'1 1.2
2015-Aug-24 03:33N 35°33' E 140°05'8 8.4
2015-Aug-24 02:33N 35°32' E 139°54'9 8.9
2015-Aug-24 01:33N 35°30' E 139°44'1 1.0
2015-Aug-24 00:33N 35°29' E 139°43'0 0.0
2015-Aug-23 23:33N 35°29' E 139°43'0 0.1
2015-Aug-23 22:33N 35°29' E 139°43'9 9.3
2015-Aug-23 21:33N 35°29' E 139°54'  
2015-Aug-21 03:33N 35°27' E 139°60'0 0.2
2015-Aug-21 02:33N 35°27' E 139°60'0 0.0
2015-Aug-21 01:33N 35°27' E 139°60'0 0.0
2015-Aug-21 00:33N 35°27' E 139°60'0 0.0
2015-Aug-20 08:13N 35°28' E 139°60'5 7.1
2015-Aug-20 07:33N 35°28' E 139°54'9 8.7
2015-Aug-20 06:33N 35°27' E 139°43'4 3.9
2015-Aug-20 05:33N 35°28' E 139°39'0 0.0
2015-Aug-20 04:33N 35°28' E 139°39'0 0.0
2015-Aug-20 03:33N 35°28' E 139°39'0 0.0
2015-Aug-20 02:33N 35°28' E 139°39'0 0.0
2015-Aug-20 01:33N 35°28' E 139°39'0 0.0
2015-Aug-20 00:33N 35°28' E 139°39'0 0.0
2015-Aug-19 23:33N 35°28' E 139°39'0 0.0
2015-Aug-19 07:16N 35°28' E 139°39'0 0.0
2015-Aug-19 06:34N 35°28' E 139°39'0 0.0
2015-Aug-19 05:34N 35°28' E 139°39'0 0.0
2015-Aug-19 04:33N 35°28' E 139°39'0 0.0
2015-Aug-19 03:34N 35°28' E 139°39'3 2.6
2015-Aug-19 02:34N 35°27' E 139°41'1110.6
2015-Aug-19 01:34N 35°29' E 139°54'  
Track history (hours):
 
Tides and Currents Weather Stations Pressure Air Temp Water Temp Dewpoint Dewpoint Depression Visibility Wind Speed Wind Dir Waves Ship Positions

Daisinmaru No.11

Last reported at 2015-Aug-28 01:09 UTC. Time now 2015-Sep-03 08:54 UTC.
Position N 35°27' E 139°59'.

Length 52 m; draft 5.2 m.

Type: Cargo ship. MMSI: 431000667.

Date/timePositionNaut miles runAvg speedWind from/ knotsBaromVisibWave heightAir tempDewpointWater temp
2015-Aug-28 01:09N 35°27' E 139°59'0 0.0
2015-Aug-28 00:33N 35°27' E 139°59'0 0.0
2015-Aug-27 00:14N 35°27' E 139°59'0 0.0
2015-Aug-26 23:33N 35°27' E 139°59'0 0.0
2015-Aug-25 01:13N 35°27' E 139°59'0 0.0
2015-Aug-25 00:33N 35°27' E 139°59'0 0.0
2015-Aug-24 23:33N 35°27' E 139°59'0 0.5
2015-Aug-24 22:33N 35°27' E 139°60'0 0.0
2015-Aug-24 06:33N 35°27' E 139°60'7 6.7
2015-Aug-24 05:33N 35°32' E 140°05'0 0.3
2015-Aug-24 04:33N 35°32' E 140°06'1 1.2
2015-Aug-24 03:33N 35°33' E 140°05'8 8.4
2015-Aug-24 02:33N 35°32' E 139°54'9 8.9
2015-Aug-24 01:33N 35°30' E 139°44'1 1.0
2015-Aug-24 00:33N 35°29' E 139°43'0 0.0
2015-Aug-23 23:33N 35°29' E 139°43'0 0.1
2015-Aug-23 22:33N 35°29' E 139°43'9 9.3
2015-Aug-23 21:33N 35°29' E 139°54'  
2015-Aug-21 03:33N 35°27' E 139°60'0 0.2
2015-Aug-21 02:33N 35°27' E 139°60'0 0.0
2015-Aug-21 01:33N 35°27' E 139°60'0 0.0
2015-Aug-21 00:33N 35°27' E 139°60'0 0.0
2015-Aug-20 08:13N 35°28' E 139°60'5 7.1
2015-Aug-20 07:33N 35°28' E 139°54'9 8.7
2015-Aug-20 06:33N 35°27' E 139°43'4 3.9
2015-Aug-20 05:33N 35°28' E 139°39'0 0.0
2015-Aug-20 04:33N 35°28' E 139°39'0 0.0
2015-Aug-20 03:33N 35°28' E 139°39'0 0.0
2015-Aug-20 02:33N 35°28' E 139°39'0 0.0
2015-Aug-20 01:33N 35°28' E 139°39'0 0.0
2015-Aug-20 00:33N 35°28' E 139°39'0 0.0
2015-Aug-19 23:33N 35°28' E 139°39'0 0.0
2015-Aug-19 07:16N 35°28' E 139°39'0 0.0
2015-Aug-19 06:34N 35°28' E 139°39'0 0.0
2015-Aug-19 05:34N 35°28' E 139°39'0 0.0
2015-Aug-19 04:33N 35°28' E 139°39'0 0.0
2015-Aug-19 03:34N 35°28' E 139°39'3 2.6
2015-Aug-19 02:34N 35°27' E 139°41'1110.6
2015-Aug-19 01:34N 35°29' E 139°54'  

Dump ship's entire track history